sensor_id;sensor_type;location;lat;lon;timestamp;temperature;humidity
38464;DHT22;24243;51.956;5.902;2023-03-17T00:00:06;18.70;49.40
38464;DHT22;24243;51.956;5.902;2023-03-17T00:02:32;18.70;49.40
38464;DHT22;24243;51.956;5.902;2023-03-17T00:04:58;18.70;49.40
38464;DHT22;24243;51.956;5.902;2023-03-17T00:07:24;18.70;49.40
38464;DHT22;24243;51.956;5.902;2023-03-17T00:09:49;18.70;49.40
38464;DHT22;24243;51.956;5.902;2023-03-17T00:12:16;18.70;49.40
38464;DHT22;24243;51.956;5.902;2023-03-17T00:14:42;18.70;49.40
38464;DHT22;24243;51.956;5.902;2023-03-17T00:17:12;18.70;49.40
38464;DHT22;24243;51.956;5.902;2023-03-17T00:19:39;18.70;49.50
38464;DHT22;24243;51.956;5.902;2023-03-17T00:22:15;18.60;49.40
38464;DHT22;24243;51.956;5.902;2023-03-17T00:24:42;18.60;49.30
38464;DHT22;24243;51.956;5.902;2023-03-17T00:27:12;18.60;49.30
38464;DHT22;24243;51.956;5.902;2023-03-17T00:29:38;18.60;49.30
38464;DHT22;24243;51.956;5.902;2023-03-17T00:32:09;18.60;49.40
38464;DHT22;24243;51.956;5.902;2023-03-17T00:34:40;18.60;50.00
38464;DHT22;24243;51.956;5.902;2023-03-17T00:37:09;18.50;49.30
38464;DHT22;24243;51.956;5.902;2023-03-17T00:39:36;18.60;49.40
38464;DHT22;24243;51.956;5.902;2023-03-17T00:42:02;18.60;49.40
38464;DHT22;24243;51.956;5.902;2023-03-17T00:44:27;18.50;49.30
38464;DHT22;24243;51.956;5.902;2023-03-17T00:46:53;18.50;49.30
38464;DHT22;24243;51.956;5.902;2023-03-17T00:49:21;18.50;50.00
38464;DHT22;24243;51.956;5.902;2023-03-17T00:51:48;18.50;49.30
38464;DHT22;24243;51.956;5.902;2023-03-17T00:54:15;18.50;49.30
38464;DHT22;24243;51.956;5.902;2023-03-17T00:56:42;18.50;49.40
38464;DHT22;24243;51.956;5.902;2023-03-17T00:59:24;18.50;49.40
38464;DHT22;24243;51.956;5.902;2023-03-17T01:01:51;18.50;49.40
38464;DHT22;24243;51.956;5.902;2023-03-17T01:04:16;18.50;49.40
38464;DHT22;24243;51.956;5.902;2023-03-17T01:06:44;18.50;49.40
38464;DHT22;24243;51.956;5.902;2023-03-17T01:09:13;18.50;49.40
38464;DHT22;24243;51.956;5.902;2023-03-17T01:11:39;18.50;49.40
38464;DHT22;24243;51.956;5.902;2023-03-17T01:14:07;18.40;49.40
38464;DHT22;24243;51.956;5.902;2023-03-17T01:16:33;18.40;49.40
38464;DHT22;24243;51.956;5.902;2023-03-17T01:18:59;18.40;49.40
38464;DHT22;24243;51.956;5.902;2023-03-17T01:21:25;18.40;49.40
38464;DHT22;24243;51.956;5.902;2023-03-17T01:23:51;18.40;49.40
38464;DHT22;24243;51.956;5.902;2023-03-17T01:26:18;18.40;49.40
38464;DHT22;24243;51.956;5.902;2023-03-17T01:28:43;18.40;49.40
38464;DHT22;24243;51.956;5.902;2023-03-17T01:31:09;18.40;49.40
38464;DHT22;24243;51.956;5.902;2023-03-17T01:33:37;18.40;49.40
38464;DHT22;24243;51.956;5.902;2023-03-17T01:36:03;18.40;49.40
38464;DHT22;24243;51.956;5.902;2023-03-17T01:38:28;18.40;49.40
38464;DHT22;24243;51.956;5.902;2023-03-17T01:40:54;18.40;49.40
38464;DHT22;24243;51.956;5.902;2023-03-17T01:43:26;18.30;49.40
38464;DHT22;24243;51.956;5.902;2023-03-17T01:51:46;18.30;49.40
38464;DHT22;24243;51.956;5.902;2023-03-17T01:54:49;18.30;49.40
38464;DHT22;24243;51.956;5.902;2023-03-17T01:57:19;18.30;49.40
38464;DHT22;24243;51.956;5.902;2023-03-17T02:00:01;18.30;49.40
38464;DHT22;24243;51.956;5.902;2023-03-17T02:02:33;18.30;49.40
38464;DHT22;24243;51.956;5.902;2023-03-17T02:05:01;18.30;49.40
38464;DHT22;24243;51.956;5.902;2023-03-17T02:07:28;18.30;49.40
38464;DHT22;24243;51.956;5.902;2023-03-17T02:10:02;18.30;49.40
38464;DHT22;24243;51.956;5.902;2023-03-17T02:12:29;18.30;49.40
38464;DHT22;24243;51.956;5.902;2023-03-17T02:14:55;18.30;49.40
38464;DHT22;24243;51.956;5.902;2023-03-17T02:17:23;18.20;49.40
38464;DHT22;24243;51.956;5.902;2023-03-17T02:19:50;18.30;49.50
38464;DHT22;24243;51.956;5.902;2023-03-17T02:22:17;18.20;49.40
38464;DHT22;24243;51.956;5.902;2023-03-17T02:24:56;18.20;49.40
38464;DHT22;24243;51.956;5.902;2023-03-17T02:27:32;18.20;49.30
38464;DHT22;24243;51.956;5.902;2023-03-17T02:30:11;18.20;49.40
38464;DHT22;24243;51.956;5.902;2023-03-17T02:32:37;18.20;49.40
38464;DHT22;24243;51.956;5.902;2023-03-17T02:35:04;18.20;49.40
38464;DHT22;24243;51.956;5.902;2023-03-17T02:37:32;18.20;49.40
38464;DHT22;24243;51.956;5.902;2023-03-17T02:39:57;18.20;49.40
38464;DHT22;24243;51.956;5.902;2023-03-17T02:42:23;18.20;49.40
38464;DHT22;24243;51.956;5.902;2023-03-17T02:44:49;18.20;49.40
38464;DHT22;24243;51.956;5.902;2023-03-17T02:47:15;18.20;49.40
38464;DHT22;24243;51.956;5.902;2023-03-17T02:49:41;18.10;49.30
38464;DHT22;24243;51.956;5.902;2023-03-17T02:52:07;18.10;49.30
38464;DHT22;24243;51.956;5.902;2023-03-17T02:54:33;18.20;49.40
38464;DHT22;24243;51.956;5.902;2023-03-17T02:57:00;18.20;49.40
38464;DHT22;24243;51.956;5.902;2023-03-17T02:59:26;18.10;49.40
38464;DHT22;24243;51.956;5.902;2023-03-17T03:01:58;18.10;49.30
38464;DHT22;24243;51.956;5.902;2023-03-17T03:04:23;18.10;49.40
38464;DHT22;24243;51.956;5.902;2023-03-17T03:06:50;18.10;49.40
38464;DHT22;24243;51.956;5.902;2023-03-17T03:09:16;18.10;49.40
38464;DHT22;24243;51.956;5.902;2023-03-17T03:11:43;18.10;49.40
38464;DHT22;24243;51.956;5.902;2023-03-17T03:14:09;18.10;49.40
38464;DHT22;24243;51.956;5.902;2023-03-17T03:16:36;18.10;49.40
38464;DHT22;24243;51.956;5.902;2023-03-17T03:19:02;18.10;49.40
38464;DHT22;24243;51.956;5.902;2023-03-17T03:21:28;18.10;49.40
38464;DHT22;24243;51.956;5.902;2023-03-17T03:24:12;18.10;49.40
38464;DHT22;24243;51.956;5.902;2023-03-17T03:26:38;18.10;49.40
38464;DHT22;24243;51.956;5.902;2023-03-17T03:29:04;18.10;49.40
38464;DHT22;24243;51.956;5.902;2023-03-17T03:31:30;18.10;50.00
38464;DHT22;24243;51.956;5.902;2023-03-17T03:33:56;18.10;49.40
38464;DHT22;24243;51.956;5.902;2023-03-17T03:36:21;18.10;49.50
38464;DHT22;24243;51.956;5.902;2023-03-17T03:38:47;18.00;49.40
38464;DHT22;24243;51.956;5.902;2023-03-17T03:41:13;18.00;49.40
38464;DHT22;24243;51.956;5.902;2023-03-17T03:43:39;18.00;49.40
38464;DHT22;24243;51.956;5.902;2023-03-17T03:46:05;18.00;49.40
38464;DHT22;24243;51.956;5.902;2023-03-17T03:48:31;18.00;49.40
38464;DHT22;24243;51.956;5.902;2023-03-17T03:50:58;18.00;49.40
38464;DHT22;24243;51.956;5.902;2023-03-17T03:53:25;18.00;49.40
38464;DHT22;24243;51.956;5.902;2023-03-17T03:55:52;18.00;49.40
38464;DHT22;24243;51.956;5.902;2023-03-17T03:58:18;18.00;49.40
38464;DHT22;24243;51.956;5.902;2023-03-17T04:00:44;18.00;49.40
38464;DHT22;24243;51.956;5.902;2023-03-17T04:03:29;18.00;49.40
38464;DHT22;24243;51.956;5.902;2023-03-17T04:05:55;18.00;49.40
38464;DHT22;24243;51.956;5.902;2023-03-17T04:08:21;18.00;49.40
38464;DHT22;24243;51.956;5.902;2023-03-17T04:10:46;18.00;49.50
38464;DHT22;24243;51.956;5.902;2023-03-17T04:13:21;18.00;49.50
38464;DHT22;24243;51.956;5.902;2023-03-17T04:15:47;18.00;49.50
38464;DHT22;24243;51.956;5.902;2023-03-17T04:18:13;18.00;49.50
38464;DHT22;24243;51.956;5.902;2023-03-17T04:20:38;18.00;49.50
38464;DHT22;24243;51.956;5.902;2023-03-17T04:23:04;18.00;49.50
38464;DHT22;24243;51.956;5.902;2023-03-17T04:25:30;18.00;49.50
38464;DHT22;24243;51.956;5.902;2023-03-17T04:27:56;18.00;49.50
38464;DHT22;24243;51.956;5.902;2023-03-17T04:30:22;18.00;49.50
38464;DHT22;24243;51.956;5.902;2023-03-17T04:32:48;18.00;49.50
38464;DHT22;24243;51.956;5.902;2023-03-17T04:35:17;18.00;49.50
38464;DHT22;24243;51.956;5.902;2023-03-17T04:37:43;18.00;49.50
38464;DHT22;24243;51.956;5.902;2023-03-17T04:40:10;17.90;49.50
38464;DHT22;24243;51.956;5.902;2023-03-17T04:42:37;17.90;49.50
38464;DHT22;24243;51.956;5.902;2023-03-17T04:45:03;17.90;49.50
38464;DHT22;24243;51.956;5.902;2023-03-17T04:47:29;17.90;50.10
38464;DHT22;24243;51.956;5.902;2023-03-17T04:49:55;17.90;49.50
38464;DHT22;24243;51.956;5.902;2023-03-17T04:52:21;17.90;49.50
38464;DHT22;24243;51.956;5.902;2023-03-17T04:54:47;17.90;49.50
38464;DHT22;24243;51.956;5.902;2023-03-17T04:57:13;17.90;49.50
38464;DHT22;24243;51.956;5.902;2023-03-17T04:59:38;17.90;49.50
38464;DHT22;24243;51.956;5.902;2023-03-17T05:02:04;17.90;49.50
38464;DHT22;24243;51.956;5.902;2023-03-17T05:04:30;17.90;49.60
38464;DHT22;24243;51.956;5.902;2023-03-17T05:06:57;17.90;49.60
38464;DHT22;24243;51.956;5.902;2023-03-17T05:09:23;17.90;49.60
38464;DHT22;24243;51.956;5.902;2023-03-17T05:11:49;17.90;49.60
38464;DHT22;24243;51.956;5.902;2023-03-17T05:14:16;17.90;49.60
38464;DHT22;24243;51.956;5.902;2023-03-17T05:16:42;17.90;49.60
38464;DHT22;24243;51.956;5.902;2023-03-17T05:19:07;17.90;49.60
38464;DHT22;24243;51.956;5.902;2023-03-17T05:21:33;17.90;49.60
38464;DHT22;24243;51.956;5.902;2023-03-17T05:23:59;17.90;49.60
38464;DHT22;24243;51.956;5.902;2023-03-17T05:26:24;17.90;49.60
38464;DHT22;24243;51.956;5.902;2023-03-17T05:28:51;17.90;49.60
38464;DHT22;24243;51.956;5.902;2023-03-17T05:31:17;17.90;49.60
38464;DHT22;24243;51.956;5.902;2023-03-17T05:33:43;17.90;49.60
38464;DHT22;24243;51.956;5.902;2023-03-17T05:36:10;17.80;49.60
38464;DHT22;24243;51.956;5.902;2023-03-17T05:38:36;17.90;49.60
38464;DHT22;24243;51.956;5.902;2023-03-17T05:41:02;17.80;49.60
38464;DHT22;24243;51.956;5.902;2023-03-17T05:43:29;17.80;49.60
38464;DHT22;24243;51.956;5.902;2023-03-17T05:45:55;17.80;49.70
38464;DHT22;24243;51.956;5.902;2023-03-17T05:48:21;17.80;49.70
38464;DHT22;24243;51.956;5.902;2023-03-17T05:50:47;17.80;49.70
38464;DHT22;24243;51.956;5.902;2023-03-17T05:53:13;17.80;49.70
38464;DHT22;24243;51.956;5.902;2023-03-17T05:55:38;17.80;49.70
38464;DHT22;24243;51.956;5.902;2023-03-17T05:58:05;17.80;49.70
38464;DHT22;24243;51.956;5.902;2023-03-17T06:00:31;17.80;49.80
38464;DHT22;24243;51.956;5.902;2023-03-17T06:02:57;17.80;49.80
38464;DHT22;24243;51.956;5.902;2023-03-17T06:05:23;17.80;49.80
38464;DHT22;24243;51.956;5.902;2023-03-17T06:07:48;17.80;49.80
38464;DHT22;24243;51.956;5.902;2023-03-17T06:10:14;17.80;49.80
38464;DHT22;24243;51.956;5.902;2023-03-17T06:12:40;17.80;49.80
38464;DHT22;24243;51.956;5.902;2023-03-17T06:15:06;17.80;49.80
38464;DHT22;24243;51.956;5.902;2023-03-17T06:17:34;17.90;49.80
38464;DHT22;24243;51.956;5.902;2023-03-17T06:20:00;17.80;49.80
38464;DHT22;24243;51.956;5.902;2023-03-17T06:22:26;17.80;49.80
38464;DHT22;24243;51.956;5.902;2023-03-17T06:24:52;17.80;49.80
38464;DHT22;24243;51.956;5.902;2023-03-17T06:27:19;17.80;49.80
38464;DHT22;24243;51.956;5.902;2023-03-17T06:29:44;17.90;49.80
38464;DHT22;24243;51.956;5.902;2023-03-17T06:32:10;17.80;49.80
38464;DHT22;24243;51.956;5.902;2023-03-17T06:34:36;17.90;49.80
38464;DHT22;24243;51.956;5.902;2023-03-17T06:37:02;17.90;49.80
38464;DHT22;24243;51.956;5.902;2023-03-17T06:39:27;17.90;49.70
38464;DHT22;24243;51.956;5.902;2023-03-17T06:41:53;17.90;49.70
38464;DHT22;24243;51.956;5.902;2023-03-17T06:44:19;17.90;49.70
38464;DHT22;24243;51.956;5.902;2023-03-17T06:46:45;17.90;49.60
38464;DHT22;24243;51.956;5.902;2023-03-17T06:49:11;17.90;49.60
38464;DHT22;24243;51.956;5.902;2023-03-17T06:51:38;18.00;49.60
38464;DHT22;24243;51.956;5.902;2023-03-17T06:54:04;18.10;49.40
38464;DHT22;24243;51.956;5.902;2023-03-17T06:56:31;18.20;49.20
38464;DHT22;24243;51.956;5.902;2023-03-17T06:58:57;18.40;48.90
38464;DHT22;24243;51.956;5.902;2023-03-17T07:01:24;18.50;48.60
38464;DHT22;24243;51.956;5.902;2023-03-17T07:03:51;18.60;48.30
38464;DHT22;24243;51.956;5.902;2023-03-17T07:06:17;18.70;48.20
38464;DHT22;24243;51.956;5.902;2023-03-17T07:08:43;18.80;48.00
38464;DHT22;24243;51.956;5.902;2023-03-17T07:11:10;18.90;47.90
38464;DHT22;24243;51.956;5.902;2023-03-17T07:13:36;19.00;47.70
38464;DHT22;24243;51.956;5.902;2023-03-17T07:16:04;19.10;47.50
38464;DHT22;24243;51.956;5.902;2023-03-17T07:18:30;19.30;47.30
38464;DHT22;24243;51.956;5.902;2023-03-17T07:21:00;19.40;47.20
38464;DHT22;24243;51.956;5.902;2023-03-17T07:23:29;19.50;47.10
38464;DHT22;24243;51.956;5.902;2023-03-17T07:25:55;19.50;47.10
38464;DHT22;24243;51.956;5.902;2023-03-17T07:28:24;19.60;47.10
38464;DHT22;24243;51.956;5.902;2023-03-17T07:30:50;19.70;47.10
38464;DHT22;24243;51.956;5.902;2023-03-17T07:33:17;19.70;47.50
38464;DHT22;24243;51.956;5.902;2023-03-17T07:35:46;19.80;46.80
38464;DHT22;24243;51.956;5.902;2023-03-17T07:38:13;20.00;46.70
38464;DHT22;24243;51.956;5.902;2023-03-17T07:40:44;20.10;46.50
38464;DHT22;24243;51.956;5.902;2023-03-17T07:43:11;20.10;46.40
38464;DHT22;24243;51.956;5.902;2023-03-17T07:45:36;20.20;46.40
38464;DHT22;24243;51.956;5.902;2023-03-17T07:48:03;20.10;46.40
38464;DHT22;24243;51.956;5.902;2023-03-17T07:50:34;20.10;46.40
38464;DHT22;24243;51.956;5.902;2023-03-17T07:53:00;20.10;46.50
38464;DHT22;24243;51.956;5.902;2023-03-17T07:55:28;20.10;46.50
38464;DHT22;24243;51.956;5.902;2023-03-17T07:57:54;20.10;46.60
38464;DHT22;24243;51.956;5.902;2023-03-17T08:00:20;20.10;46.60
38464;DHT22;24243;51.956;5.902;2023-03-17T08:02:48;20.20;46.60
38464;DHT22;24243;51.956;5.902;2023-03-17T08:05:15;20.20;46.50
38464;DHT22;24243;51.956;5.902;2023-03-17T08:07:41;20.20;46.40
38464;DHT22;24243;51.956;5.902;2023-03-17T08:10:08;20.30;46.30
38464;DHT22;24243;51.956;5.902;2023-03-17T08:12:36;20.40;46.30
38464;DHT22;24243;51.956;5.902;2023-03-17T08:15:02;20.40;46.20
38464;DHT22;24243;51.956;5.902;2023-03-17T08:17:27;20.50;46.10
38464;DHT22;24243;51.956;5.902;2023-03-17T08:19:54;20.60;46.50
38464;DHT22;24243;51.956;5.902;2023-03-17T08:22:39;20.70;45.60
38464;DHT22;24243;51.956;5.902;2023-03-17T08:25:24;20.90;45.30
38464;DHT22;24243;51.956;5.902;2023-03-17T08:27:50;21.10;45.00
38464;DHT22;24243;51.956;5.902;2023-03-17T08:30:16;21.30;44.70
38464;DHT22;24243;51.956;5.902;2023-03-17T08:32:42;21.50;44.40
38464;DHT22;24243;51.956;5.902;2023-03-17T08:35:15;21.60;44.10
38464;DHT22;24243;51.956;5.902;2023-03-17T08:37:45;21.80;43.90
38464;DHT22;24243;51.956;5.902;2023-03-17T08:40:14;22.00;43.60
38464;DHT22;24243;51.956;5.902;2023-03-17T08:42:42;22.20;43.90
38464;DHT22;24243;51.956;5.902;2023-03-17T08:45:27;22.40;43.10
38464;DHT22;24243;51.956;5.902;2023-03-17T08:47:53;22.40;42.90
38464;DHT22;24243;51.956;5.902;2023-03-17T08:50:29;22.40;43.00
38464;DHT22;24243;51.956;5.902;2023-03-17T08:52:55;22.40;43.10
38464;DHT22;24243;51.956;5.902;2023-03-17T08:55:20;22.40;43.30
38464;DHT22;24243;51.956;5.902;2023-03-17T08:57:48;22.30;43.60
38464;DHT22;24243;51.956;5.902;2023-03-17T09:00:15;22.10;43.90
38464;DHT22;24243;51.956;5.902;2023-03-17T09:02:45;21.90;44.30
38464;DHT22;24243;51.956;5.902;2023-03-17T09:05:12;21.80;44.60
38464;DHT22;24243;51.956;5.902;2023-03-17T09:07:39;21.70;44.90
38464;DHT22;24243;51.956;5.902;2023-03-17T09:10:07;21.60;45.10
38464;DHT22;24243;51.956;5.902;2023-03-17T09:12:33;21.50;45.30
38464;DHT22;24243;51.956;5.902;2023-03-17T09:15:17;21.50;46.00
38464;DHT22;24243;51.956;5.902;2023-03-17T09:17:44;21.50;45.50
38464;DHT22;24243;51.956;5.902;2023-03-17T09:20:28;21.50;45.70
38464;DHT22;24243;51.956;5.902;2023-03-17T09:23:12;21.40;45.80
38464;DHT22;24243;51.956;5.902;2023-03-17T09:25:57;21.40;45.90
38464;DHT22;24243;51.956;5.902;2023-03-17T09:28:23;21.30;46.00
38464;DHT22;24243;51.956;5.902;2023-03-17T09:31:03;21.30;46.10
38464;DHT22;24243;51.956;5.902;2023-03-17T09:33:35;21.30;46.20
38464;DHT22;24243;51.956;5.902;2023-03-17T09:36:20;21.30;46.20
38464;DHT22;24243;51.956;5.902;2023-03-17T09:39:02;21.30;46.30
38464;DHT22;24243;51.956;5.902;2023-03-17T09:41:57;21.20;46.50
38464;DHT22;24243;51.956;5.902;2023-03-17T09:50:01;21.10;46.80
38464;DHT22;24243;51.956;5.902;2023-03-17T09:52:45;21.10;46.90
38464;DHT22;24243;51.956;5.902;2023-03-17T09:55:31;21.10;47.00
38464;DHT22;24243;51.956;5.902;2023-03-17T09:57:58;21.10;46.90
38464;DHT22;24243;51.956;5.902;2023-03-17T10:00:27;21.10;47.00
38464;DHT22;24243;51.956;5.902;2023-03-17T10:02:56;21.10;47.00
38464;DHT22;24243;51.956;5.902;2023-03-17T10:08:18;21.10;47.00
38464;DHT22;24243;51.956;5.902;2023-03-17T10:17:17;21.10;47.10
38464;DHT22;24243;51.956;5.902;2023-03-17T10:22:48;21.10;47.10
38464;DHT22;24243;51.956;5.902;2023-03-17T10:25:35;21.10;47.20
38464;DHT22;24243;51.956;5.902;2023-03-17T10:30:50;21.10;47.20
38464;DHT22;24243;51.956;5.902;2023-03-17T10:33:36;21.10;47.20
38464;DHT22;24243;51.956;5.902;2023-03-17T10:36:09;21.20;47.20
38464;DHT22;24243;51.956;5.902;2023-03-17T10:38:53;21.20;47.20
38464;DHT22;24243;51.956;5.902;2023-03-17T10:41:40;21.20;47.20
38464;DHT22;24243;51.956;5.902;2023-03-17T10:44:34;21.20;47.20
38464;DHT22;24243;51.956;5.902;2023-03-17T10:47:31;21.30;47.20
38464;DHT22;24243;51.956;5.902;2023-03-17T10:52:47;21.20;47.20
38464;DHT22;24243;51.956;5.902;2023-03-17T10:55:19;21.20;47.20
38464;DHT22;24243;51.956;5.902;2023-03-17T10:57:51;21.20;47.30
38464;DHT22;24243;51.956;5.902;2023-03-17T11:00:18;21.20;47.30
38464;DHT22;24243;51.956;5.902;2023-03-17T11:02:55;21.20;47.30
38464;DHT22;24243;51.956;5.902;2023-03-17T11:05:25;21.30;47.30
38464;DHT22;24243;51.956;5.902;2023-03-17T11:08:07;21.30;47.30
38464;DHT22;24243;51.956;5.902;2023-03-17T11:10:38;21.30;47.30
38464;DHT22;24243;51.956;5.902;2023-03-17T11:13:04;21.30;47.30
38464;DHT22;24243;51.956;5.902;2023-03-17T11:15:34;21.30;47.40
38464;DHT22;24243;51.956;5.902;2023-03-17T11:18:02;21.30;47.40
38464;DHT22;24243;51.956;5.902;2023-03-17T11:28:47;21.30;47.30
38464;DHT22;24243;51.956;5.902;2023-03-17T11:34:09;21.30;47.20
38464;DHT22;24243;51.956;5.902;2023-03-17T11:37:03;21.30;47.10
38464;DHT22;24243;51.956;5.902;2023-03-17T11:39:52;21.30;47.10
38464;DHT22;24243;51.956;5.902;2023-03-17T11:47:47;21.30;47.30
38464;DHT22;24243;51.956;5.902;2023-03-17T11:50:49;21.30;47.40
38464;DHT22;24243;51.956;5.902;2023-03-17T11:53:30;21.30;47.50
38464;DHT22;24243;51.956;5.902;2023-03-17T11:56:33;21.30;47.50
38464;DHT22;24243;51.956;5.902;2023-03-17T11:59:04;21.40;47.50
38464;DHT22;24243;51.956;5.902;2023-03-17T12:01:56;21.40;47.50
38464;DHT22;24243;51.956;5.902;2023-03-17T12:04:34;21.40;47.50
38464;DHT22;24243;51.956;5.902;2023-03-17T12:07:24;21.40;47.50
38464;DHT22;24243;51.956;5.902;2023-03-17T12:09:59;21.40;47.40
38464;DHT22;24243;51.956;5.902;2023-03-17T12:12:39;21.40;47.50
38464;DHT22;24243;51.956;5.902;2023-03-17T12:18:04;21.50;47.60
38464;DHT22;24243;51.956;5.902;2023-03-17T12:26:12;21.50;47.60
38464;DHT22;24243;51.956;5.902;2023-03-17T12:29:08;21.50;47.70
38464;DHT22;24243;51.956;5.902;2023-03-17T12:31:40;21.50;47.70
38464;DHT22;24243;51.956;5.902;2023-03-17T12:34:54;21.50;47.70
38464;DHT22;24243;51.956;5.902;2023-03-17T12:37:21;21.50;47.70
38464;DHT22;24243;51.956;5.902;2023-03-17T12:40:10;21.50;47.70
38464;DHT22;24243;51.956;5.902;2023-03-17T12:42:49;21.50;47.80
38464;DHT22;24243;51.956;5.902;2023-03-17T12:51:07;21.50;47.80
38464;DHT22;24243;51.956;5.902;2023-03-17T12:53:45;21.50;47.90
38464;DHT22;24243;51.956;5.902;2023-03-17T12:56:23;21.50;47.90
38464;DHT22;24243;51.956;5.902;2023-03-17T12:58:52;21.60;47.90
38464;DHT22;24243;51.956;5.902;2023-03-17T13:06:22;21.50;47.90
38464;DHT22;24243;51.956;5.902;2023-03-17T13:08:50;21.60;48.00
38464;DHT22;24243;51.956;5.902;2023-03-17T13:11:27;21.50;48.00
38464;DHT22;24243;51.956;5.902;2023-03-17T13:13:55;21.60;48.00
38464;DHT22;24243;51.956;5.902;2023-03-17T13:19:19;21.50;48.00
38464;DHT22;24243;51.956;5.902;2023-03-17T13:24:45;21.50;48.10
38464;DHT22;24243;51.956;5.902;2023-03-17T13:27:39;21.50;48.20
38464;DHT22;24243;51.956;5.902;2023-03-17T13:49:26;21.30;48.60
38464;DHT22;24243;51.956;5.902;2023-03-17T13:51:54;21.30;48.70
38464;DHT22;24243;51.956;5.902;2023-03-17T13:54:32;21.30;48.80
38464;DHT22;24243;51.956;5.902;2023-03-17T14:00:26;21.20;48.80
38464;DHT22;24243;51.956;5.902;2023-03-17T14:03:02;21.20;48.90
38464;DHT22;24243;51.956;5.902;2023-03-17T14:05:32;21.10;48.90
38464;DHT22;24243;51.956;5.902;2023-03-17T14:08:01;21.10;48.90
38464;DHT22;24243;51.956;5.902;2023-03-17T14:10:30;21.10;48.90
38464;DHT22;24243;51.956;5.902;2023-03-17T14:13:19;21.10;49.00
38464;DHT22;24243;51.956;5.902;2023-03-17T14:15:59;21.10;49.00
38464;DHT22;24243;51.956;5.902;2023-03-17T14:18:34;21.00;49.00
38464;DHT22;24243;51.956;5.902;2023-03-17T14:21:01;21.00;49.00
38464;DHT22;24243;51.956;5.902;2023-03-17T14:23:29;21.10;49.10
38464;DHT22;24243;51.956;5.902;2023-03-17T14:25:57;21.00;49.00
38464;DHT22;24243;51.956;5.902;2023-03-17T14:28:26;21.00;49.00
38464;DHT22;24243;51.956;5.902;2023-03-17T14:31:00;21.00;49.00
38464;DHT22;24243;51.956;5.902;2023-03-17T14:33:36;21.00;49.00
38464;DHT22;24243;51.956;5.902;2023-03-17T14:36:06;21.00;49.00
38464;DHT22;24243;51.956;5.902;2023-03-17T14:38:37;21.00;49.10
38464;DHT22;24243;51.956;5.902;2023-03-17T14:43:38;20.90;49.10
38464;DHT22;24243;51.956;5.902;2023-03-17T14:46:06;20.90;49.10
38464;DHT22;24243;51.956;5.902;2023-03-17T14:48:37;20.90;49.10
38464;DHT22;24243;51.956;5.902;2023-03-17T14:53:50;20.80;49.10
38464;DHT22;24243;51.956;5.902;2023-03-17T14:56:23;20.90;49.20
38464;DHT22;24243;51.956;5.902;2023-03-17T14:58:52;20.80;49.20
38464;DHT22;24243;51.956;5.902;2023-03-17T15:01:37;20.80;49.20
38464;DHT22;24243;51.956;5.902;2023-03-17T15:04:15;20.80;49.20
38464;DHT22;24243;51.956;5.902;2023-03-17T15:06:47;20.80;49.30
38464;DHT22;24243;51.956;5.902;2023-03-17T15:09:39;20.80;49.30
38464;DHT22;24243;51.956;5.902;2023-03-17T15:12:23;20.70;49.20
38464;DHT22;24243;51.956;5.902;2023-03-17T15:15:04;20.70;49.20
38464;DHT22;24243;51.956;5.902;2023-03-17T15:17:35;20.70;49.30
38464;DHT22;24243;51.956;5.902;2023-03-17T15:20:21;20.70;49.30
38464;DHT22;24243;51.956;5.902;2023-03-17T15:25:36;20.70;49.30
38464;DHT22;24243;51.956;5.902;2023-03-17T15:28:13;20.70;49.30
38464;DHT22;24243;51.956;5.902;2023-03-17T15:30:40;20.70;49.40
38464;DHT22;24243;51.956;5.902;2023-03-17T15:35:54;20.60;49.30
38464;DHT22;24243;51.956;5.902;2023-03-17T15:38:22;20.60;49.40
38464;DHT22;24243;51.956;5.902;2023-03-17T15:40:47;20.60;49.40
38464;DHT22;24243;51.956;5.902;2023-03-17T15:43:15;20.60;49.40
38464;DHT22;24243;51.956;5.902;2023-03-17T15:45:42;20.60;49.40
38464;DHT22;24243;51.956;5.902;2023-03-17T15:48:19;20.50;49.40
38464;DHT22;24243;51.956;5.902;2023-03-17T15:50:46;20.60;50.10
38464;DHT22;24243;51.956;5.902;2023-03-17T15:53:13;20.50;49.40
38464;DHT22;24243;51.956;5.902;2023-03-17T15:55:39;20.50;49.50
38464;DHT22;24243;51.956;5.902;2023-03-17T15:58:05;20.50;49.50
38464;DHT22;24243;51.956;5.902;2023-03-17T16:00:31;20.50;49.60
38464;DHT22;24243;51.956;5.902;2023-03-17T16:02:59;20.50;49.60
38464;DHT22;24243;51.956;5.902;2023-03-17T16:05:30;20.50;49.60
38464;DHT22;24243;51.956;5.902;2023-03-17T16:07:57;20.50;49.70
38464;DHT22;24243;51.956;5.902;2023-03-17T16:10:28;20.50;49.70
38464;DHT22;24243;51.956;5.902;2023-03-17T16:12:54;20.50;49.70
38464;DHT22;24243;51.956;5.902;2023-03-17T16:15:26;20.50;49.80
38464;DHT22;24243;51.956;5.902;2023-03-17T16:18:04;20.50;49.80
38464;DHT22;24243;51.956;5.902;2023-03-17T16:20:38;20.50;49.80
38464;DHT22;24243;51.956;5.902;2023-03-17T16:23:23;20.40;49.80
38464;DHT22;24243;51.956;5.902;2023-03-17T16:25:49;20.40;49.80
38464;DHT22;24243;51.956;5.902;2023-03-17T16:28:16;20.40;49.80
38464;DHT22;24243;51.956;5.902;2023-03-17T16:30:43;20.40;49.90
38464;DHT22;24243;51.956;5.902;2023-03-17T16:35:48;20.40;49.80
38464;DHT22;24243;51.956;5.902;2023-03-17T16:38:19;20.40;49.90
38464;DHT22;24243;51.956;5.902;2023-03-17T16:40:53;20.30;49.80
38464;DHT22;24243;51.956;5.902;2023-03-17T16:43:22;20.30;49.90
38464;DHT22;24243;51.956;5.902;2023-03-17T16:45:49;20.30;50.00
38464;DHT22;24243;51.956;5.902;2023-03-17T16:48:16;20.30;50.10
38464;DHT22;24243;51.956;5.902;2023-03-17T16:50:42;20.30;50.10
38464;DHT22;24243;51.956;5.902;2023-03-17T16:53:08;20.30;50.10
38464;DHT22;24243;51.956;5.902;2023-03-17T16:55:35;20.20;50.10
38464;DHT22;24243;51.956;5.902;2023-03-17T16:58:12;20.20;50.10
38464;DHT22;24243;51.956;5.902;2023-03-17T17:00:39;20.20;50.10
38464;DHT22;24243;51.956;5.902;2023-03-17T17:03:05;20.20;50.10
38464;DHT22;24243;51.956;5.902;2023-03-17T17:05:30;20.20;50.10
38464;DHT22;24243;51.956;5.902;2023-03-17T17:07:57;20.20;50.10
38464;DHT22;24243;51.956;5.902;2023-03-17T17:10:25;20.20;50.10
38464;DHT22;24243;51.956;5.902;2023-03-17T17:12:51;20.10;50.10
38464;DHT22;24243;51.956;5.902;2023-03-17T17:15:18;20.10;50.10
38464;DHT22;24243;51.956;5.902;2023-03-17T17:17:50;20.10;50.10
38464;DHT22;24243;51.956;5.902;2023-03-17T17:20:27;20.10;50.10
38464;DHT22;24243;51.956;5.902;2023-03-17T17:23:13;20.10;50.10
38464;DHT22;24243;51.956;5.902;2023-03-17T17:25:40;20.00;50.10
38464;DHT22;24243;51.956;5.902;2023-03-17T17:28:06;20.00;50.10
38464;DHT22;24243;51.956;5.902;2023-03-17T17:30:33;20.10;50.20
38464;DHT22;24243;51.956;5.902;2023-03-17T17:32:59;20.00;50.20
38464;DHT22;24243;51.956;5.902;2023-03-17T17:35:28;20.00;50.30